sensor_id;sensor_type;location;lat;lon;timestamp;P1;durP1;ratioP1;P2;durP2;ratioP2
6564;SDS011;3316;44.118;27.258;2022-10-16T00:01:20;18.50;;;10.97;;
6564;SDS011;3316;44.118;27.258;2022-10-16T00:03:47;20.23;;;11.03;;
6564;SDS011;3316;44.118;27.258;2022-10-16T00:06:14;16.03;;;10.70;;
6564;SDS011;3316;44.118;27.258;2022-10-16T00:08:40;18.37;;;10.60;;
6564;SDS011;3316;44.118;27.258;2022-10-16T00:11:16;18.73;;;11.30;;
6564;SDS011;3316;44.118;27.258;2022-10-16T00:13:44;14.90;;;10.53;;
6564;SDS011;3316;44.118;27.258;2022-10-16T00:16:11;15.23;;;9.83;;
6564;SDS011;3316;44.118;27.258;2022-10-16T00:18:38;17.17;;;8.83;;
6564;SDS011;3316;44.118;27.258;2022-10-16T00:21:05;14.57;;;9.47;;
6564;SDS011;3316;44.118;27.258;2022-10-16T00:23:32;13.03;;;9.13;;
6564;SDS011;3316;44.118;27.258;2022-10-16T00:25:59;14.27;;;9.33;;
6564;SDS011;3316;44.118;27.258;2022-10-16T00:28:26;18.43;;;9.33;;
6564;SDS011;3316;44.118;27.258;2022-10-16T00:30:51;15.63;;;9.90;;
6564;SDS011;3316;44.118;27.258;2022-10-16T00:33:18;14.10;;;10.73;;
6564;SDS011;3316;44.118;27.258;2022-10-16T00:35:43;17.60;;;11.60;;
6564;SDS011;3316;44.118;27.258;2022-10-16T00:38:09;20.93;;;14.00;;
6564;SDS011;3316;44.118;27.258;2022-10-16T00:40:35;19.47;;;13.40;;
6564;SDS011;3316;44.118;27.258;2022-10-16T00:43:00;25.77;;;14.90;;
6564;SDS011;3316;44.118;27.258;2022-10-16T00:45:25;21.67;;;14.53;;
6564;SDS011;3316;44.118;27.258;2022-10-16T00:47:51;19.20;;;14.63;;
6564;SDS011;3316;44.118;27.258;2022-10-16T00:50:22;23.53;;;16.20;;
6564;SDS011;3316;44.118;27.258;2022-10-16T00:52:53;24.90;;;15.33;;
6564;SDS011;3316;44.118;27.258;2022-10-16T00:55:20;24.50;;;15.87;;
6564;SDS011;3316;44.118;27.258;2022-10-16T00:57:46;25.73;;;16.37;;
6564;SDS011;3316;44.118;27.258;2022-10-16T01:00:13;24.83;;;17.23;;
6564;SDS011;3316;44.118;27.258;2022-10-16T01:02:42;25.17;;;16.67;;
6564;SDS011;3316;44.118;27.258;2022-10-16T01:05:08;26.53;;;15.97;;
6564;SDS011;3316;44.118;27.258;2022-10-16T01:10:28;25.63;;;16.13;;
6564;SDS011;3316;44.118;27.258;2022-10-16T01:13:09;23.37;;;16.20;;
6564;SDS011;3316;44.118;27.258;2022-10-16T01:15:42;26.70;;;16.23;;
6564;SDS011;3316;44.118;27.258;2022-10-16T01:26:09;26.10;;;16.73;;
6564;SDS011;3316;44.118;27.258;2022-10-16T01:28:55;33.03;;;18.23;;
6564;SDS011;3316;44.118;27.258;2022-10-16T01:31:28;29.33;;;16.17;;
6564;SDS011;3316;44.118;27.258;2022-10-16T01:34:03;26.80;;;17.37;;
6564;SDS011;3316;44.118;27.258;2022-10-16T01:36:31;25.07;;;16.30;;
6564;SDS011;3316;44.118;27.258;2022-10-16T01:39:02;27.10;;;17.53;;
6564;SDS011;3316;44.118;27.258;2022-10-16T01:41:32;25.13;;;17.57;;
6564;SDS011;3316;44.118;27.258;2022-10-16T01:44:03;27.93;;;17.20;;
6564;SDS011;3316;44.118;27.258;2022-10-16T01:46:32;27.50;;;17.53;;
6564;SDS011;3316;44.118;27.258;2022-10-16T01:49:01;24.60;;;17.90;;
6564;SDS011;3316;44.118;27.258;2022-10-16T01:51:28;27.90;;;16.57;;
6564;SDS011;3316;44.118;27.258;2022-10-16T01:53:55;26.30;;;17.03;;
6564;SDS011;3316;44.118;27.258;2022-10-16T01:56:24;28.60;;;17.03;;
6564;SDS011;3316;44.118;27.258;2022-10-16T01:58:52;20.97;;;16.43;;
6564;SDS011;3316;44.118;27.258;2022-10-16T02:01:21;27.33;;;15.73;;
6564;SDS011;3316;44.118;27.258;2022-10-16T02:03:51;23.97;;;15.20;;
6564;SDS011;3316;44.118;27.258;2022-10-16T02:06:19;27.97;;;17.03;;
6564;SDS011;3316;44.118;27.258;2022-10-16T02:08:45;23.40;;;15.30;;
6564;SDS011;3316;44.118;27.258;2022-10-16T02:11:11;24.47;;;16.17;;
6564;SDS011;3316;44.118;27.258;2022-10-16T02:13:48;26.40;;;15.83;;
6564;SDS011;3316;44.118;27.258;2022-10-16T02:16:19;25.77;;;15.53;;
6564;SDS011;3316;44.118;27.258;2022-10-16T02:18:44;24.67;;;15.23;;
6564;SDS011;3316;44.118;27.258;2022-10-16T02:21:13;23.23;;;14.87;;
6564;SDS011;3316;44.118;27.258;2022-10-16T02:23:54;26.77;;;15.83;;
6564;SDS011;3316;44.118;27.258;2022-10-16T02:26:32;22.43;;;15.67;;
6564;SDS011;3316;44.118;27.258;2022-10-16T02:29:05;28.37;;;15.20;;
6564;SDS011;3316;44.118;27.258;2022-10-16T02:31:35;21.37;;;14.87;;
6564;SDS011;3316;44.118;27.258;2022-10-16T02:34:03;20.27;;;14.47;;
6564;SDS011;3316;44.118;27.258;2022-10-16T02:36:30;20.23;;;14.17;;
6564;SDS011;3316;44.118;27.258;2022-10-16T02:38:57;22.90;;;15.47;;
6564;SDS011;3316;44.118;27.258;2022-10-16T02:41:25;20.50;;;14.10;;
6564;SDS011;3316;44.118;27.258;2022-10-16T02:43:51;22.33;;;15.70;;
6564;SDS011;3316;44.118;27.258;2022-10-16T02:46:16;21.00;;;14.93;;
6564;SDS011;3316;44.118;27.258;2022-10-16T02:48:43;27.13;;;14.13;;
6564;SDS011;3316;44.118;27.258;2022-10-16T02:51:08;22.33;;;15.47;;
6564;SDS011;3316;44.118;27.258;2022-10-16T02:53:34;23.30;;;15.43;;
6564;SDS011;3316;44.118;27.258;2022-10-16T02:55:59;24.90;;;15.90;;
6564;SDS011;3316;44.118;27.258;2022-10-16T02:58:25;26.83;;;17.77;;
6564;SDS011;3316;44.118;27.258;2022-10-16T03:00:50;37.33;;;20.63;;
6564;SDS011;3316;44.118;27.258;2022-10-16T03:03:15;36.80;;;22.70;;
6564;SDS011;3316;44.118;27.258;2022-10-16T03:05:42;43.60;;;25.87;;
6564;SDS011;3316;44.118;27.258;2022-10-16T03:08:10;43.63;;;26.13;;
6564;SDS011;3316;44.118;27.258;2022-10-16T03:10:36;40.33;;;23.80;;
6564;SDS011;3316;44.118;27.258;2022-10-16T03:13:02;41.00;;;23.00;;
6564;SDS011;3316;44.118;27.258;2022-10-16T03:15:27;40.83;;;23.37;;
6564;SDS011;3316;44.118;27.258;2022-10-16T03:17:53;32.27;;;19.03;;
6564;SDS011;3316;44.118;27.258;2022-10-16T03:20:19;35.57;;;22.43;;
6564;SDS011;3316;44.118;27.258;2022-10-16T03:22:45;30.33;;;19.50;;
6564;SDS011;3316;44.118;27.258;2022-10-16T03:25:10;26.37;;;14.50;;
6564;SDS011;3316;44.118;27.258;2022-10-16T03:27:35;23.43;;;15.17;;
6564;SDS011;3316;44.118;27.258;2022-10-16T03:30:01;20.00;;;12.80;;
6564;SDS011;3316;44.118;27.258;2022-10-16T03:32:27;20.13;;;13.67;;
6564;SDS011;3316;44.118;27.258;2022-10-16T03:34:53;20.63;;;13.63;;
6564;SDS011;3316;44.118;27.258;2022-10-16T03:37:19;22.90;;;13.80;;
6564;SDS011;3316;44.118;27.258;2022-10-16T03:39:45;21.67;;;14.00;;
6564;SDS011;3316;44.118;27.258;2022-10-16T03:42:10;21.70;;;13.67;;
6564;SDS011;3316;44.118;27.258;2022-10-16T03:44:36;25.43;;;13.07;;
6564;SDS011;3316;44.118;27.258;2022-10-16T03:47:01;26.40;;;12.73;;
6564;SDS011;3316;44.118;27.258;2022-10-16T03:49:26;22.90;;;13.53;;
6564;SDS011;3316;44.118;27.258;2022-10-16T03:51:52;32.13;;;14.93;;
6564;SDS011;3316;44.118;27.258;2022-10-16T03:54:17;20.80;;;12.33;;
6564;SDS011;3316;44.118;27.258;2022-10-16T03:56:43;27.93;;;13.37;;
6564;SDS011;3316;44.118;27.258;2022-10-16T03:59:08;23.63;;;12.57;;
6564;SDS011;3316;44.118;27.258;2022-10-16T04:01:34;21.10;;;12.40;;
6564;SDS011;3316;44.118;27.258;2022-10-16T04:03:59;19.07;;;12.27;;
6564;SDS011;3316;44.118;27.258;2022-10-16T04:06:25;20.43;;;12.87;;
6564;SDS011;3316;44.118;27.258;2022-10-16T04:08:50;24.73;;;12.40;;
6564;SDS011;3316;44.118;27.258;2022-10-16T04:11:16;17.83;;;12.20;;
6564;SDS011;3316;44.118;27.258;2022-10-16T04:13:41;22.13;;;13.07;;
6564;SDS011;3316;44.118;27.258;2022-10-16T04:16:06;21.83;;;13.00;;
6564;SDS011;3316;44.118;27.258;2022-10-16T04:18:32;19.13;;;11.70;;
6564;SDS011;3316;44.118;27.258;2022-10-16T04:21:02;25.50;;;12.77;;
6564;SDS011;3316;44.118;27.258;2022-10-16T04:23:28;20.47;;;13.70;;
6564;SDS011;3316;44.118;27.258;2022-10-16T04:25:53;29.60;;;13.70;;
6564;SDS011;3316;44.118;27.258;2022-10-16T04:28:19;25.90;;;12.03;;
6564;SDS011;3316;44.118;27.258;2022-10-16T04:30:45;29.47;;;13.10;;
6564;SDS011;3316;44.118;27.258;2022-10-16T04:33:10;19.63;;;13.33;;
6564;SDS011;3316;44.118;27.258;2022-10-16T04:35:36;23.50;;;12.43;;
6564;SDS011;3316;44.118;27.258;2022-10-16T04:38:01;23.23;;;13.57;;
6564;SDS011;3316;44.118;27.258;2022-10-16T04:40:27;22.87;;;14.17;;
6564;SDS011;3316;44.118;27.258;2022-10-16T04:42:52;22.90;;;14.27;;
6564;SDS011;3316;44.118;27.258;2022-10-16T04:45:17;23.07;;;14.43;;
6564;SDS011;3316;44.118;27.258;2022-10-16T04:47:43;29.80;;;14.73;;
6564;SDS011;3316;44.118;27.258;2022-10-16T04:50:08;31.53;;;20.53;;
6564;SDS011;3316;44.118;27.258;2022-10-16T04:52:34;40.20;;;22.17;;
6564;SDS011;3316;44.118;27.258;2022-10-16T04:54:59;44.77;;;21.63;;
6564;SDS011;3316;44.118;27.258;2022-10-16T04:57:27;34.47;;;21.30;;
6564;SDS011;3316;44.118;27.258;2022-10-16T04:59:54;36.17;;;21.13;;
6564;SDS011;3316;44.118;27.258;2022-10-16T05:02:19;28.37;;;17.90;;
6564;SDS011;3316;44.118;27.258;2022-10-16T05:04:44;40.83;;;19.57;;
6564;SDS011;3316;44.118;27.258;2022-10-16T05:07:10;31.17;;;17.87;;
6564;SDS011;3316;44.118;27.258;2022-10-16T05:09:35;39.33;;;18.50;;
6564;SDS011;3316;44.118;27.258;2022-10-16T05:12:01;37.13;;;17.37;;
6564;SDS011;3316;44.118;27.258;2022-10-16T05:14:28;48.07;;;18.53;;
6564;SDS011;3316;44.118;27.258;2022-10-16T05:16:54;33.90;;;17.17;;
6564;SDS011;3316;44.118;27.258;2022-10-16T05:19:19;35.23;;;17.10;;
6564;SDS011;3316;44.118;27.258;2022-10-16T05:21:45;31.53;;;16.87;;
6564;SDS011;3316;44.118;27.258;2022-10-16T05:24:10;38.27;;;17.13;;
6564;SDS011;3316;44.118;27.258;2022-10-16T05:26:35;24.40;;;15.60;;
6564;SDS011;3316;44.118;27.258;2022-10-16T05:29:01;31.33;;;17.10;;
6564;SDS011;3316;44.118;27.258;2022-10-16T05:31:27;23.27;;;12.13;;
6564;SDS011;3316;44.118;27.258;2022-10-16T05:33:57;18.03;;;11.77;;
6564;SDS011;3316;44.118;27.258;2022-10-16T05:36:23;16.80;;;10.30;;
6564;SDS011;3316;44.118;27.258;2022-10-16T05:38:50;21.93;;;10.87;;
6564;SDS011;3316;44.118;27.258;2022-10-16T05:41:16;14.20;;;8.93;;
6564;SDS011;3316;44.118;27.258;2022-10-16T05:43:46;14.57;;;8.83;;
6564;SDS011;3316;44.118;27.258;2022-10-16T05:46:12;16.53;;;10.23;;
6564;SDS011;3316;44.118;27.258;2022-10-16T05:48:38;18.10;;;9.20;;
6564;SDS011;3316;44.118;27.258;2022-10-16T05:51:05;17.13;;;8.57;;
6564;SDS011;3316;44.118;27.258;2022-10-16T05:53:33;18.13;;;9.00;;
6564;SDS011;3316;44.118;27.258;2022-10-16T05:55:59;12.43;;;7.70;;
6564;SDS011;3316;44.118;27.258;2022-10-16T05:58:28;39.10;;;21.03;;
6564;SDS011;3316;44.118;27.258;2022-10-16T06:01:14;56.35;;;25.20;;
6564;SDS011;3316;44.118;27.258;2022-10-16T06:03:44;35.88;;;16.08;;
6564;SDS011;3316;44.118;27.258;2022-10-16T06:06:20;22.73;;;9.50;;
6564;SDS011;3316;44.118;27.258;2022-10-16T06:08:48;10.52;;;8.02;;
6564;SDS011;3316;44.118;27.258;2022-10-16T06:11:21;10.77;;;7.95;;
6564;SDS011;3316;44.118;27.258;2022-10-16T06:13:49;15.32;;;9.07;;
6564;SDS011;3316;44.118;27.258;2022-10-16T06:16:16;14.90;;;8.52;;
6564;SDS011;3316;44.118;27.258;2022-10-16T06:18:41;15.35;;;9.43;;
6564;SDS011;3316;44.118;27.258;2022-10-16T06:21:08;17.00;;;11.27;;
6564;SDS011;3316;44.118;27.258;2022-10-16T06:23:35;15.27;;;10.02;;
6564;SDS011;3316;44.118;27.258;2022-10-16T06:26:07;13.95;;;9.02;;
6564;SDS011;3316;44.118;27.258;2022-10-16T06:28:34;15.15;;;10.35;;
6564;SDS011;3316;44.118;27.258;2022-10-16T06:31:00;18.08;;;8.70;;
6564;SDS011;3316;44.118;27.258;2022-10-16T06:33:27;18.58;;;10.13;;
6564;SDS011;3316;44.118;27.258;2022-10-16T06:35:52;17.25;;;9.85;;
6564;SDS011;3316;44.118;27.258;2022-10-16T06:38:18;18.02;;;10.32;;
6564;SDS011;3316;44.118;27.258;2022-10-16T06:40:43;14.68;;;9.10;;
6564;SDS011;3316;44.118;27.258;2022-10-16T06:43:09;20.13;;;9.35;;
6564;SDS011;3316;44.118;27.258;2022-10-16T06:45:34;15.15;;;9.30;;
6564;SDS011;3316;44.118;27.258;2022-10-16T06:47:59;12.93;;;8.95;;
6564;SDS011;3316;44.118;27.258;2022-10-16T06:50:25;14.05;;;9.30;;
6564;SDS011;3316;44.118;27.258;2022-10-16T06:52:50;13.18;;;8.50;;
6564;SDS011;3316;44.118;27.258;2022-10-16T06:55:16;14.50;;;8.80;;
6564;SDS011;3316;44.118;27.258;2022-10-16T06:57:42;13.20;;;8.85;;
6564;SDS011;3316;44.118;27.258;2022-10-16T07:00:08;14.88;;;9.95;;
6564;SDS011;3316;44.118;27.258;2022-10-16T07:02:34;16.50;;;10.73;;
6564;SDS011;3316;44.118;27.258;2022-10-16T07:04:59;15.88;;;9.85;;
6564;SDS011;3316;44.118;27.258;2022-10-16T07:07:25;18.17;;;10.80;;
6564;SDS011;3316;44.118;27.258;2022-10-16T07:09:51;16.00;;;10.90;;
6564;SDS011;3316;44.118;27.258;2022-10-16T07:12:17;17.45;;;10.27;;
6564;SDS011;3316;44.118;27.258;2022-10-16T07:14:42;25.80;;;10.95;;
6564;SDS011;3316;44.118;27.258;2022-10-16T07:17:08;18.50;;;10.57;;
6564;SDS011;3316;44.118;27.258;2022-10-16T07:19:33;15.32;;;10.60;;
6564;SDS011;3316;44.118;27.258;2022-10-16T07:21:59;15.18;;;10.63;;
6564;SDS011;3316;44.118;27.258;2022-10-16T07:24:25;17.45;;;11.00;;
6564;SDS011;3316;44.118;27.258;2022-10-16T07:26:50;28.30;;;10.98;;
6564;SDS011;3316;44.118;27.258;2022-10-16T07:29:17;15.30;;;10.27;;
6564;SDS011;3316;44.118;27.258;2022-10-16T07:31:45;15.65;;;10.50;;
6564;SDS011;3316;44.118;27.258;2022-10-16T07:34:11;14.40;;;9.80;;
6564;SDS011;3316;44.118;27.258;2022-10-16T07:36:38;14.90;;;10.07;;
6564;SDS011;3316;44.118;27.258;2022-10-16T07:39:04;14.10;;;10.77;;
6564;SDS011;3316;44.118;27.258;2022-10-16T07:41:29;16.08;;;9.68;;
6564;SDS011;3316;44.118;27.258;2022-10-16T07:43:57;14.95;;;10.05;;
6564;SDS011;3316;44.118;27.258;2022-10-16T07:46:25;12.75;;;9.57;;
6564;SDS011;3316;44.118;27.258;2022-10-16T07:48:51;19.88;;;9.93;;
6564;SDS011;3316;44.118;27.258;2022-10-16T07:51:18;15.90;;;10.15;;
6564;SDS011;3316;44.118;27.258;2022-10-16T07:53:45;18.10;;;11.02;;
6564;SDS011;3316;44.118;27.258;2022-10-16T07:56:12;13.18;;;10.43;;
6564;SDS011;3316;44.118;27.258;2022-10-16T07:58:38;18.90;;;10.43;;
6564;SDS011;3316;44.118;27.258;2022-10-16T08:01:04;15.30;;;9.85;;
6564;SDS011;3316;44.118;27.258;2022-10-16T08:03:35;16.60;;;9.57;;
6564;SDS011;3316;44.118;27.258;2022-10-16T08:06:01;15.20;;;9.52;;
6564;SDS011;3316;44.118;27.258;2022-10-16T08:08:27;12.65;;;8.77;;
6564;SDS011;3316;44.118;27.258;2022-10-16T08:10:53;15.35;;;10.23;;
6564;SDS011;3316;44.118;27.258;2022-10-16T08:13:18;15.60;;;9.93;;
6564;SDS011;3316;44.118;27.258;2022-10-16T08:15:44;14.15;;;8.65;;
6564;SDS011;3316;44.118;27.258;2022-10-16T08:18:11;13.70;;;8.98;;
6564;SDS011;3316;44.118;27.258;2022-10-16T08:20:37;12.98;;;8.52;;
6564;SDS011;3316;44.118;27.258;2022-10-16T08:23:04;26.08;;;14.75;;
6564;SDS011;3316;44.118;27.258;2022-10-16T08:25:29;17.88;;;10.38;;
6564;SDS011;3316;44.118;27.258;2022-10-16T08:27:54;14.27;;;8.50;;
6564;SDS011;3316;44.118;27.258;2022-10-16T08:30:21;16.92;;;8.90;;
6564;SDS011;3316;44.118;27.258;2022-10-16T08:32:47;18.40;;;9.55;;
6564;SDS011;3316;44.118;27.258;2022-10-16T08:35:13;18.88;;;10.07;;
6564;SDS011;3316;44.118;27.258;2022-10-16T08:37:40;13.02;;;8.10;;
6564;SDS011;3316;44.118;27.258;2022-10-16T08:40:06;14.52;;;8.45;;
6564;SDS011;3316;44.118;27.258;2022-10-16T08:42:45;12.73;;;8.77;;
6564;SDS011;3316;44.118;27.258;2022-10-16T08:45:27;12.57;;;8.15;;
6564;SDS011;3316;44.118;27.258;2022-10-16T08:50:51;12.00;;;7.65;;
6564;SDS011;3316;44.118;27.258;2022-10-16T08:53:28;11.60;;;7.70;;
6564;SDS011;3316;44.118;27.258;2022-10-16T08:55:59;12.95;;;6.97;;
6564;SDS011;3316;44.118;27.258;2022-10-16T08:58:28;10.30;;;6.65;;
6564;SDS011;3316;44.118;27.258;2022-10-16T09:00:59;13.65;;;6.70;;
6564;SDS011;3316;44.118;27.258;2022-10-16T09:06:13;10.30;;;6.07;;
6564;SDS011;3316;44.118;27.258;2022-10-16T09:08:51;11.85;;;6.10;;
6564;SDS011;3316;44.118;27.258;2022-10-16T09:11:41;11.75;;;6.07;;
6564;SDS011;3316;44.118;27.258;2022-10-16T09:20:18;8.35;;;5.85;;
6564;SDS011;3316;44.118;27.258;2022-10-16T09:22:47;10.73;;;5.18;;
6564;SDS011;3316;44.118;27.258;2022-10-16T09:25:17;8.70;;;5.38;;
6564;SDS011;3316;44.118;27.258;2022-10-16T09:27:46;13.93;;;5.45;;
6564;SDS011;3316;44.118;27.258;2022-10-16T09:30:17;10.30;;;5.32;;
6564;SDS011;3316;44.118;27.258;2022-10-16T09:32:44;10.07;;;5.53;;
6564;SDS011;3316;44.118;27.258;2022-10-16T09:35:14;7.63;;;4.75;;
6564;SDS011;3316;44.118;27.258;2022-10-16T09:37:47;7.90;;;4.47;;
6564;SDS011;3316;44.118;27.258;2022-10-16T09:40:31;8.52;;;4.95;;
6564;SDS011;3316;44.118;27.258;2022-10-16T09:43:21;11.02;;;4.47;;
6564;SDS011;3316;44.118;27.258;2022-10-16T09:46:21;6.13;;;4.03;;
6564;SDS011;3316;44.118;27.258;2022-10-16T09:48:53;7.90;;;3.88;;
6564;SDS011;3316;44.118;27.258;2022-10-16T09:51:25;8.32;;;4.05;;
6564;SDS011;3316;44.118;27.258;2022-10-16T09:53:54;7.38;;;4.30;;
6564;SDS011;3316;44.118;27.258;2022-10-16T09:56:28;9.38;;;3.47;;
6564;SDS011;3316;44.118;27.258;2022-10-16T09:58:58;8.05;;;3.40;;
6564;SDS011;3316;44.118;27.258;2022-10-16T10:01:39;5.90;;;3.50;;
6564;SDS011;3316;44.118;27.258;2022-10-16T10:04:11;5.45;;;2.92;;
6564;SDS011;3316;44.118;27.258;2022-10-16T10:06:37;7.32;;;3.20;;
6564;SDS011;3316;44.118;27.258;2022-10-16T10:11:57;11.32;;;3.53;;
6564;SDS011;3316;44.118;27.258;2022-10-16T10:14:25;5.32;;;3.10;;
6564;SDS011;3316;44.118;27.258;2022-10-16T10:17:28;6.10;;;3.05;;
6564;SDS011;3316;44.118;27.258;2022-10-16T10:19:59;7.93;;;2.80;;
6564;SDS011;3316;44.118;27.258;2022-10-16T10:25:25;6.00;;;3.40;;
6564;SDS011;3316;44.118;27.258;2022-10-16T10:30:36;5.20;;;3.27;;
6564;SDS011;3316;44.118;27.258;2022-10-16T10:38:54;4.97;;;2.50;;
6564;SDS011;3316;44.118;27.258;2022-10-16T10:41:42;4.15;;;2.88;;
6564;SDS011;3316;44.118;27.258;2022-10-16T10:50:10;3.40;;;2.35;;
6564;SDS011;3316;44.118;27.258;2022-10-16T10:58:19;7.37;;;3.17;;
6564;SDS011;3316;44.118;27.258;2022-10-16T11:01:09;6.43;;;2.83;;
6564;SDS011;3316;44.118;27.258;2022-10-16T11:03:42;8.60;;;2.80;;
6564;SDS011;3316;44.118;27.258;2022-10-16T11:06:17;10.68;;;3.00;;
6564;SDS011;3316;44.118;27.258;2022-10-16T11:11:38;4.13;;;2.28;;
6564;SDS011;3316;44.118;27.258;2022-10-16T11:14:31;5.82;;;2.60;;
6564;SDS011;3316;44.118;27.258;2022-10-16T11:17:09;6.23;;;2.77;;
6564;SDS011;3316;44.118;27.258;2022-10-16T11:22:18;4.60;;;2.43;;
6564;SDS011;3316;44.118;27.258;2022-10-16T11:25:11;5.27;;;2.63;;
6564;SDS011;3316;44.118;27.258;2022-10-16T11:27:57;5.37;;;2.33;;
6564;SDS011;3316;44.118;27.258;2022-10-16T11:30:29;5.30;;;2.73;;
6564;SDS011;3316;44.118;27.258;2022-10-16T11:35:44;6.87;;;2.87;;
6564;SDS011;3316;44.118;27.258;2022-10-16T11:41:26;3.25;;;2.38;;
6564;SDS011;3316;44.118;27.258;2022-10-16T11:47:34;3.87;;;2.77;;
6564;SDS011;3316;44.118;27.258;2022-10-16T11:49:49;6.60;;;2.97;;
6564;SDS011;3316;44.118;27.258;2022-10-16T11:52:36;4.83;;;2.80;;
6564;SDS011;3316;44.118;27.258;2022-10-16T11:57:53;5.10;;;2.27;;
6564;SDS011;3316;44.118;27.258;2022-10-16T12:00:26;3.07;;;2.47;;
6564;SDS011;3316;44.118;27.258;2022-10-16T12:08:20;5.33;;;2.77;;
6564;SDS011;3316;44.118;27.258;2022-10-16T12:10:47;4.10;;;2.30;;
6564;SDS011;3316;44.118;27.258;2022-10-16T12:13:29;6.50;;;2.40;;
6564;SDS011;3316;44.118;27.258;2022-10-16T12:21:37;5.47;;;2.73;;
6564;SDS011;3316;44.118;27.258;2022-10-16T12:24:02;6.27;;;2.93;;
6564;SDS011;3316;44.118;27.258;2022-10-16T12:26:31;3.83;;;2.60;;
6564;SDS011;3316;44.118;27.258;2022-10-16T12:29:22;3.77;;;2.67;;
6564;SDS011;3316;44.118;27.258;2022-10-16T12:31:55;6.70;;;2.60;;
6564;SDS011;3316;44.118;27.258;2022-10-16T12:34:26;6.07;;;2.40;;
6564;SDS011;3316;44.118;27.258;2022-10-16T12:37:07;4.20;;;2.97;;
6564;SDS011;3316;44.118;27.258;2022-10-16T12:39:35;4.83;;;2.40;;
6564;SDS011;3316;44.118;27.258;2022-10-16T12:42:03;3.20;;;2.10;;
6564;SDS011;3316;44.118;27.258;2022-10-16T12:44:32;3.63;;;2.23;;
6564;SDS011;3316;44.118;27.258;2022-10-16T12:46:59;5.60;;;2.67;;
6564;SDS011;3316;44.118;27.258;2022-10-16T12:51:53;6.60;;;2.57;;
6564;SDS011;3316;44.118;27.258;2022-10-16T12:56:51;6.20;;;2.63;;
6564;SDS011;3316;44.118;27.258;2022-10-16T13:13:23;5.53;;;2.53;;
6564;SDS011;3316;44.118;27.258;2022-10-16T13:15:58;3.40;;;2.30;;
6564;SDS011;3316;44.118;27.258;2022-10-16T13:30:10;3.47;;;2.43;;
6564;SDS011;3316;44.118;27.258;2022-10-16T13:32:39;10.17;;;2.67;;
6564;SDS011;3316;44.118;27.258;2022-10-16T13:35:18;7.10;;;2.97;;
6564;SDS011;3316;44.118;27.258;2022-10-16T13:37:45;4.87;;;2.33;;
6564;SDS011;3316;44.118;27.258;2022-10-16T13:40:23;6.43;;;2.97;;
6564;SDS011;3316;44.118;27.258;2022-10-16T13:42:50;6.67;;;3.27;;
6564;SDS011;3316;44.118;27.258;2022-10-16T13:45:22;7.40;;;3.07;;
6564;SDS011;3316;44.118;27.258;2022-10-16T13:47:50;7.53;;;3.67;;
6564;SDS011;3316;44.118;27.258;2022-10-16T13:50:37;7.33;;;2.60;;
6564;SDS011;3316;44.118;27.258;2022-10-16T13:53:03;6.43;;;2.63;;
6564;SDS011;3316;44.118;27.258;2022-10-16T13:55:32;4.83;;;3.63;;
6564;SDS011;3316;44.118;27.258;2022-10-16T13:58:07;5.53;;;2.93;;
6564;SDS011;3316;44.118;27.258;2022-10-16T14:00:37;3.77;;;2.73;;
6564;SDS011;3316;44.118;27.258;2022-10-16T14:03:07;5.97;;;2.70;;
6564;SDS011;3316;44.118;27.258;2022-10-16T14:05:44;5.63;;;2.80;;
6564;SDS011;3316;44.118;27.258;2022-10-16T14:08:13;6.03;;;2.97;;
6564;SDS011;3316;44.118;27.258;2022-10-16T14:10:38;4.83;;;3.10;;
6564;SDS011;3316;44.118;27.258;2022-10-16T14:13:05;6.67;;;3.00;;
6564;SDS011;3316;44.118;27.258;2022-10-16T14:15:33;5.50;;;2.97;;
6564;SDS011;3316;44.118;27.258;2022-10-16T14:18:01;6.43;;;3.10;;
6564;SDS011;3316;44.118;27.258;2022-10-16T14:20:28;5.90;;;2.63;;
6564;SDS011;3316;44.118;27.258;2022-10-16T14:23:00;4.70;;;2.90;;
6564;SDS011;3316;44.118;27.258;2022-10-16T14:25:29;6.03;;;3.10;;
6564;SDS011;3316;44.118;27.258;2022-10-16T14:28:00;5.10;;;3.30;;
6564;SDS011;3316;44.118;27.258;2022-10-16T14:30:49;4.70;;;2.90;;
6564;SDS011;3316;44.118;27.258;2022-10-16T14:36:05;7.43;;;3.30;;
6564;SDS011;3316;44.118;27.258;2022-10-16T14:38:35;14.50;;;4.07;;
6564;SDS011;3316;44.118;27.258;2022-10-16T14:41:02;6.07;;;3.13;;
6564;SDS011;3316;44.118;27.258;2022-10-16T14:43:33;6.87;;;3.40;;
6564;SDS011;3316;44.118;27.258;2022-10-16T14:45:59;8.37;;;3.20;;
6564;SDS011;3316;44.118;27.258;2022-10-16T14:48:26;6.97;;;2.90;;
6564;SDS011;3316;44.118;27.258;2022-10-16T14:50:52;6.60;;;3.33;;
6564;SDS011;3316;44.118;27.258;2022-10-16T14:53:17;5.23;;;3.13;;
6564;SDS011;3316;44.118;27.258;2022-10-16T14:55:43;6.87;;;3.10;;
6564;SDS011;3316;44.118;27.258;2022-10-16T15:00:45;6.03;;;2.70;;
6564;SDS011;3316;44.118;27.258;2022-10-16T15:03:11;5.30;;;2.97;;
6564;SDS011;3316;44.118;27.258;2022-10-16T15:05:37;7.20;;;3.17;;
6564;SDS011;3316;44.118;27.258;2022-10-16T15:08:02;6.67;;;3.10;;
6564;SDS011;3316;44.118;27.258;2022-10-16T15:10:29;4.67;;;2.93;;
6564;SDS011;3316;44.118;27.258;2022-10-16T15:12:56;6.00;;;3.27;;
6564;SDS011;3316;44.118;27.258;2022-10-16T15:17:47;5.13;;;3.17;;
6564;SDS011;3316;44.118;27.258;2022-10-16T15:20:22;5.10;;;3.50;;
6564;SDS011;3316;44.118;27.258;2022-10-16T15:22:51;5.73;;;3.50;;
6564;SDS011;3316;44.118;27.258;2022-10-16T15:25:29;10.30;;;4.13;;
6564;SDS011;3316;44.118;27.258;2022-10-16T15:27:57;6.90;;;3.80;;
6564;SDS011;3316;44.118;27.258;2022-10-16T15:30:23;8.13;;;3.30;;
6564;SDS011;3316;44.118;27.258;2022-10-16T15:32:49;9.63;;;4.63;;
6564;SDS011;3316;44.118;27.258;2022-10-16T15:35:14;9.90;;;4.83;;
6564;SDS011;3316;44.118;27.258;2022-10-16T15:37:40;9.97;;;4.10;;
6564;SDS011;3316;44.118;27.258;2022-10-16T15:40:06;8.67;;;4.27;;
6564;SDS011;3316;44.118;27.258;2022-10-16T15:42:31;8.57;;;3.30;;
6564;SDS011;3316;44.118;27.258;2022-10-16T15:44:57;7.63;;;3.77;;
6564;SDS011;3316;44.118;27.258;2022-10-16T15:47:22;8.17;;;3.50;;
6564;SDS011;3316;44.118;27.258;2022-10-16T15:49:48;8.07;;;3.90;;
6564;SDS011;3316;44.118;27.258;2022-10-16T15:52:13;8.87;;;4.03;;
6564;SDS011;3316;44.118;27.258;2022-10-16T15:54:39;10.80;;;3.73;;
6564;SDS011;3316;44.118;27.258;2022-10-16T15:57:04;14.90;;;4.40;;
6564;SDS011;3316;44.118;27.258;2022-10-16T15:59:29;10.17;;;4.23;;
6564;SDS011;3316;44.118;27.258;2022-10-16T16:01:55;9.23;;;3.90;;
6564;SDS011;3316;44.118;27.258;2022-10-16T16:04:20;8.33;;;3.83;;
6564;SDS011;3316;44.118;27.258;2022-10-16T16:06:46;8.97;;;3.40;;
6564;SDS011;3316;44.118;27.258;2022-10-16T16:09:12;4.80;;;3.17;;
6564;SDS011;3316;44.118;27.258;2022-10-16T16:11:38;6.67;;;2.90;;
6564;SDS011;3316;44.118;27.258;2022-10-16T16:14:07;6.90;;;3.50;;
6564;SDS011;3316;44.118;27.258;2022-10-16T16:16:38;6.70;;;3.60;;
6564;SDS011;3316;44.118;27.258;2022-10-16T16:19:04;7.83;;;3.20;;
6564;SDS011;3316;44.118;27.258;2022-10-16T16:21:31;6.47;;;3.23;;
6564;SDS011;3316;44.118;27.258;2022-10-16T16:23:57;4.87;;;3.07;;
6564;SDS011;3316;44.118;27.258;2022-10-16T16:26:23;4.30;;;3.30;;
6564;SDS011;3316;44.118;27.258;2022-10-16T16:28:57;9.60;;;4.23;;
6564;SDS011;3316;44.118;27.258;2022-10-16T16:31:24;10.83;;;3.90;;
6564;SDS011;3316;44.118;27.258;2022-10-16T16:33:50;10.97;;;4.30;;
6564;SDS011;3316;44.118;27.258;2022-10-16T16:36:16;7.40;;;4.50;;
6564;SDS011;3316;44.118;27.258;2022-10-16T16:38:43;11.87;;;4.40;;
6564;SDS011;3316;44.118;27.258;2022-10-16T16:41:15;10.27;;;4.90;;
6564;SDS011;3316;44.118;27.258;2022-10-16T16:43:46;14.20;;;4.07;;
6564;SDS011;3316;44.118;27.258;2022-10-16T16:46:16;7.13;;;4.40;;
6564;SDS011;3316;44.118;27.258;2022-10-16T16:48:41;12.60;;;4.43;;
6564;SDS011;3316;44.118;27.258;2022-10-16T16:51:08;12.00;;;4.50;;